createdAt,value
2018-03-02T00:00:10.170Z,100162.71
2018-03-02T00:02:38.518Z,100158.44
2018-03-02T00:05:06.866Z,100162.24
2018-03-02T00:07:35.245Z,100154.47
2018-03-02T00:10:03.676Z,100143.66
2018-03-02T00:12:31.977Z,100144.38
2018-03-02T00:15:00.341Z,100128.08
2018-03-02T00:17:28.691Z,100139.61
2018-03-02T00:19:57.018Z,100131.85
2018-03-02T00:22:25.361Z,100133.54
2018-03-02T00:24:53.786Z,100136.64
2018-03-02T00:27:22.130Z,100129.36
2018-03-02T00:29:50.546Z,100131.55
2018-03-02T00:32:18.925Z,100135.95
2018-03-02T00:34:47.294Z,100143.29
2018-03-02T00:37:15.670Z,100141.72
2018-03-02T00:39:43.999Z,100139.02
2018-03-02T00:42:12.349Z,100142.41
2018-03-02T00:44:40.678Z,100129.16
2018-03-02T00:47:09.030Z,100131.49
2018-03-02T00:49:37.359Z,100133.84
2018-03-02T00:52:05.706Z,100121.41
2018-03-02T00:54:34.036Z,100115.17
2018-03-02T00:57:02.495Z,100121.11
2018-03-02T00:59:30.861Z,100116.29
2018-03-02T01:01:59.240Z,100118.63
2018-03-02T01:04:27.622Z,100114.92
2018-03-02T01:06:55.993Z,100109.41
2018-03-02T01:09:24.329Z,100105.49
2018-03-02T01:11:52.671Z,100110.16
2018-03-02T01:14:20.997Z,100101.86
2018-03-02T01:16:49.349Z,100107.98
2018-03-02T01:19:17.670Z,100100.29
2018-03-02T01:21:46.054Z,100096.39
2018-03-02T01:24:14.386Z,100092.15
2018-03-02T01:26:42.735Z,100092.09
2018-03-02T01:29:11.058Z,100089.91
2018-03-02T01:31:39.405Z,100082.25
2018-03-02T01:34:07.734Z,100082.62
2018-03-02T01:36:36.114Z,100080.09
2018-03-02T01:39:04.494Z,100077.06
2018-03-02T01:41:32.864Z,100071.72
2018-03-02T01:44:01.214Z,100072.34
2018-03-02T01:46:29.617Z,100070.13
2018-03-02T01:48:57.965Z,100064.50
2018-03-02T01:51:38.358Z,100071.60
2018-03-02T01:54:06.710Z,100058.11
2018-03-02T01:56:35.110Z,100052.63
2018-03-02T01:59:03.492Z,100045.03
2018-03-02T02:01:31.833Z,100042.36
2018-03-02T02:04:00.191Z,100036.52
2018-03-02T02:06:28.622Z,100036.73
2018-03-02T02:08:56.973Z,100040.66
2018-03-02T02:11:25.377Z,100043.48
2018-03-02T02:13:53.727Z,100030.58
2018-03-02T02:16:22.073Z,100036.55
2018-03-02T02:18:50.506Z,100034.97
2018-03-02T02:21:18.882Z,100027.97
2018-03-02T02:23:47.238Z,100029.63
2018-03-02T02:26:15.578Z,100016.78
2018-03-02T02:28:43.961Z,100027.80
2018-03-02T02:31:12.394Z,100015.55
2018-03-02T02:33:40.738Z,100013.35
2018-03-02T02:36:09.070Z,100016.37
2018-03-02T02:38:37.522Z,100016.07
2018-03-02T02:41:05.899Z,100013.14
2018-03-02T02:43:34.251Z,100014.44
2018-03-02T02:46:02.586Z,100008.70
2018-03-02T02:48:30.936Z,100019.47
2018-03-02T02:50:59.270Z,100008.39
2018-03-02T02:53:27.622Z,100006.17
2018-03-02T02:55:55.962Z,100006.31
2018-03-02T02:58:24.356Z,99999.59
2018-03-02T03:00:52.713Z,99994.45
2018-03-02T03:03:21.095Z,99993.17
2018-03-02T03:05:49.414Z,99983.83
2018-03-02T03:08:17.761Z,99986.27
2018-03-02T03:10:46.082Z,99986.34
2018-03-02T03:13:14.426Z,99986.26
2018-03-02T03:15:42.748Z,99981.78
2018-03-02T03:18:11.154Z,99981.87
2018-03-02T03:20:39.533Z,99992.11
2018-03-02T03:23:07.869Z,99981.34
2018-03-02T03:25:36.194Z,99980.89
2018-03-02T03:28:04.534Z,99977.05
2018-03-02T03:30:32.858Z,99982.11
2018-03-02T03:33:01.203Z,99964.92
2018-03-02T03:35:29.590Z,99973.63
2018-03-02T03:37:57.970Z,99964.05
2018-03-02T03:40:26.350Z,99972.66
2018-03-02T03:42:54.689Z,99971.59
2018-03-02T03:45:23.012Z,99969.48
2018-03-02T03:47:51.366Z,99972.80
2018-03-02T03:50:19.749Z,99963.09
2018-03-02T03:52:48.130Z,99968.73
2018-03-02T03:55:16.508Z,99968.73
2018-03-02T03:57:44.830Z,99968.52
2018-03-02T04:00:13.261Z,99967.78
2018-03-02T04:02:41.581Z,99964.44
2018-03-02T04:05:10.013Z,99950.32
2018-03-02T04:07:38.389Z,99950.69
2018-03-02T04:10:06.739Z,99945.42
2018-03-02T04:12:35.068Z,99951.02
2018-03-02T04:15:03.424Z,99952.35
2018-03-02T04:17:31.797Z,99949.33
2018-03-02T04:20:00.381Z,99939.84
2018-03-02T04:22:28.798Z,99932.20
2018-03-02T04:24:57.237Z,99928.90
2018-03-02T04:27:25.617Z,99929.23
2018-03-02T04:29:53.961Z,99930.73
2018-03-02T04:32:22.285Z,99927.89
2018-03-02T04:34:50.629Z,99923.67
2018-03-02T04:37:18.954Z,99918.63
2018-03-02T04:39:47.403Z,99922.38
2018-03-02T04:42:15.794Z,99922.31
2018-03-02T04:44:44.150Z,99925.70
2018-03-02T04:47:12.485Z,99925.34
2018-03-02T04:49:40.913Z,99905.61
2018-03-02T04:52:09.244Z,99903.38
2018-03-02T04:54:37.666Z,99903.39
2018-03-02T04:57:06.005Z,99903.33
2018-03-02T04:59:34.397Z,99902.59
2018-03-02T05:02:02.722Z,99905.00
2018-03-02T05:04:31.094Z,99904.89
2018-03-02T05:06:59.450Z,99902.04
2018-03-02T05:09:27.829Z,99903.30
2018-03-02T05:11:56.156Z,99890.24
2018-03-02T05:14:24.499Z,99878.59
2018-03-02T05:16:52.853Z,99893.74
2018-03-02T05:19:21.234Z,99881.13
2018-03-02T05:21:49.665Z,99886.70
2018-03-02T05:24:18.098Z,99876.40
2018-03-02T05:26:46.415Z,99896.12
2018-03-02T05:29:14.757Z,99889.63
2018-03-02T05:31:43.119Z,99884.98
2018-03-02T05:34:11.462Z,99890.48
2018-03-02T05:36:40.257Z,99885.28
2018-03-02T05:39:09.233Z,99875.48
2018-03-02T05:41:37.555Z,99881.13
2018-03-02T05:44:05.902Z,99875.58
2018-03-02T05:46:34.258Z,99876.79
2018-03-02T05:49:02.682Z,99877.11
2018-03-02T05:51:31.022Z,99867.95
2018-03-02T05:53:59.388Z,99861.19
2018-03-02T05:56:27.815Z,99854.45
2018-03-02T05:58:56.197Z,99862.89
2018-03-02T06:01:24.550Z,99865.38
2018-03-02T06:03:52.947Z,99859.73
2018-03-02T06:06:21.304Z,99855.39
2018-03-02T06:08:49.630Z,99854.66
2018-03-02T06:11:17.982Z,99860.55
2018-03-02T06:13:46.359Z,99859.14
2018-03-02T06:16:15.629Z,99856.70
2018-03-02T06:18:43.963Z,99849.82
2018-03-02T06:21:12.378Z,99849.34
2018-03-02T06:23:40.870Z,99849.77
2018-03-02T06:26:09.337Z,99847.58
2018-03-02T06:28:37.667Z,99849.70
2018-03-02T06:31:06.149Z,99845.27
2018-03-02T06:33:34.476Z,99846.63
2018-03-02T06:36:02.886Z,99841.36
2018-03-02T06:38:31.222Z,99832.36
2018-03-02T06:40:59.577Z,99844.77
2018-03-02T06:43:29.763Z,99843.09
2018-03-02T06:45:58.788Z,99840.59
2018-03-02T06:48:27.102Z,99841.95
2018-03-02T06:50:55.494Z,99849.08
2018-03-02T06:53:23.823Z,99840.44
2018-03-02T06:55:52.194Z,99845.25
2018-03-02T06:58:20.766Z,99844.66
2018-03-02T07:00:49.118Z,99838.04
2018-03-02T07:03:17.441Z,99831.36
2018-03-02T07:05:45.794Z,99832.61
2018-03-02T07:08:14.122Z,99830.75
2018-03-02T07:10:42.518Z,99831.23
2018-03-02T07:13:10.958Z,99827.88
2018-03-02T07:15:39.373Z,99843.34
2018-03-02T07:18:08.362Z,99837.42
2018-03-02T07:20:36.738Z,99833.74
2018-03-02T07:23:05.117Z,99837.91
2018-03-02T07:25:33.466Z,99835.06
2018-03-02T07:28:01.874Z,99836.48
2018-03-02T07:30:30.222Z,99837.58
2018-03-02T07:32:58.578Z,99835.92
2018-03-02T07:35:27.005Z,99830.92
2018-03-02T07:37:55.931Z,99827.77
2018-03-02T07:40:24.287Z,99824.38
2018-03-02T07:42:52.609Z,99824.31
2018-03-02T07:45:20.977Z,99816.22
2018-03-02T07:47:49.293Z,99806.84
2018-03-02T07:50:17.641Z,99807.47
2018-03-02T07:52:45.997Z,99796.78
2018-03-02T07:55:14.352Z,99799.98
2018-03-02T07:57:43.581Z,99795.11
2018-03-02T08:00:11.942Z,99789.85
2018-03-02T08:02:40.287Z,99792.94
2018-03-02T08:05:08.620Z,99786.03
2018-03-02T08:07:37.003Z,99791.34
2018-03-02T08:10:05.329Z,99798.59
2018-03-02T08:12:33.678Z,99785.31
2018-03-02T08:15:02.061Z,99788.52
2018-03-02T08:17:31.261Z,99785.28
2018-03-02T08:19:59.638Z,99781.05
2018-03-02T08:22:27.991Z,99778.67
2018-03-02T08:24:56.313Z,99775.41
2018-03-02T08:27:24.670Z,99781.05
2018-03-02T08:29:53.229Z,99780.52
2018-03-02T08:32:21.729Z,99782.81
2018-03-02T08:34:50.058Z,99779.42
2018-03-02T08:37:18.898Z,99771.38
2018-03-02T08:39:47.279Z,99775.33
2018-03-02T08:42:15.626Z,99768.19
2018-03-02T08:44:43.950Z,99771.17
2018-03-02T08:47:12.299Z,99770.52
2018-03-02T08:49:40.677Z,99775.62
2018-03-02T08:52:09.031Z,99761.38
2018-03-02T08:54:37.433Z,99762.33
2018-03-02T08:57:05.810Z,99753.84
2018-03-02T08:59:34.181Z,99758.19
2018-03-02T09:02:02.522Z,99748.05
2018-03-02T09:04:30.863Z,99763.94
2018-03-02T09:06:59.217Z,99756.14
2018-03-02T09:09:27.550Z,99755.27
2018-03-02T09:11:55.974Z,99751.17
2018-03-02T09:14:24.345Z,99740.86
2018-03-02T09:16:52.693Z,99761.79
2018-03-02T09:19:21.023Z,99743.91
2018-03-02T09:21:49.377Z,99744.15
2018-03-02T09:24:17.754Z,99740.53
2018-03-02T09:26:46.143Z,99746.53
2018-03-02T09:29:14.543Z,99731.81
2018-03-02T09:31:42.890Z,99751.62
2018-03-02T09:34:11.218Z,99743.05
2018-03-02T09:36:39.641Z,99736.31
2018-03-02T09:39:07.966Z,99734.38
2018-03-02T09:41:36.343Z,99750.04
2018-03-02T09:44:04.678Z,99748.31
2018-03-02T09:46:34.006Z,99743.79
2018-03-02T09:49:02.345Z,99737.13
2018-03-02T09:51:30.706Z,99734.50
2018-03-02T09:53:59.020Z,99726.48
2018-03-02T09:56:28.281Z,99718.81
2018-03-02T09:58:56.673Z,99726.16
2018-03-02T10:01:25.051Z,99712.05
2018-03-02T10:03:53.430Z,99711.71
2018-03-02T10:06:21.819Z,99704.27
2018-03-02T10:08:50.150Z,99714.61
2018-03-02T10:11:18.585Z,99699.69
2018-03-02T10:13:46.967Z,99699.31
2018-03-02T10:16:16.197Z,99695.13
2018-03-02T10:18:44.558Z,99697.33
2018-03-02T10:21:12.901Z,99696.54
2018-03-02T10:23:41.250Z,99696.59
2018-03-02T10:26:09.577Z,99704.77
2018-03-02T10:28:37.932Z,99691.76
2018-03-02T10:31:06.258Z,99685.73
2018-03-02T10:33:34.609Z,99688.02
2018-03-02T10:36:02.953Z,99685.42
2018-03-02T10:38:31.321Z,99681.98
2018-03-02T10:40:59.659Z,99680.81
2018-03-02T10:43:28.089Z,99670.11
2018-03-02T10:45:56.842Z,99674.83
2018-03-02T10:48:25.297Z,99673.63
2018-03-02T10:50:55.034Z,99677.49
2018-03-02T10:53:29.458Z,99655.12
2018-03-02T10:55:58.780Z,99654.28
2018-03-02T10:58:27.122Z,99662.07
2018-03-02T11:00:55.466Z,99652.59
2018-03-02T11:03:23.803Z,99651.27
2018-03-02T11:05:52.205Z,99648.30
2018-03-02T11:08:20.557Z,99647.47
2018-03-02T11:10:48.900Z,99638.39
2018-03-02T11:13:17.374Z,99635.83
2018-03-02T11:15:45.701Z,99625.47
2018-03-02T11:18:14.113Z,99624.61
2018-03-02T11:20:42.470Z,99629.78
2018-03-02T11:23:10.829Z,99624.17
2018-03-02T11:25:39.158Z,99624.60
2018-03-02T11:28:07.695Z,99612.52
2018-03-02T11:30:36.133Z,99609.92
2018-03-02T11:33:04.723Z,99597.77
2018-03-02T11:35:33.096Z,99597.77
2018-03-02T11:38:01.405Z,99590.42
2018-03-02T11:40:29.738Z,99583.58
2018-03-02T11:42:58.183Z,99580.58
2018-03-02T11:45:26.511Z,99579.67
2018-03-02T11:47:54.931Z,99586.94
2018-03-02T11:50:23.318Z,99576.13
2018-03-02T11:52:51.719Z,99568.77
2018-03-02T11:55:20.049Z,99566.14
2018-03-02T11:57:48.442Z,99563.92
2018-03-02T12:00:16.820Z,99574.67
2018-03-02T12:02:45.168Z,99572.52
2018-03-02T12:05:13.498Z,99566.58
2018-03-02T12:07:41.949Z,99556.61
2018-03-02T12:10:10.282Z,99553.87
2018-03-02T12:12:39.165Z,99555.20
2018-03-02T12:15:07.590Z,99553.92
2018-03-02T12:17:35.966Z,99550.09
2018-03-02T12:20:04.298Z,99543.20
2018-03-02T12:22:32.731Z,99542.30
2018-03-02T12:25:01.082Z,99538.39
2018-03-02T12:27:29.473Z,99543.09
2018-03-02T12:29:57.830Z,99536.56
2018-03-02T12:32:26.149Z,99538.33
2018-03-02T12:34:54.605Z,99531.39
2018-03-02T12:37:22.934Z,99527.95
2018-03-02T12:39:51.280Z,99526.14
2018-03-02T12:42:19.739Z,99515.44
2018-03-02T12:44:48.121Z,99518.45
2018-03-02T12:47:16.599Z,99517.53
2018-03-02T12:49:44.975Z,99518.39
2018-03-02T12:52:13.502Z,99521.87
2018-03-02T12:54:41.895Z,99514.81
2018-03-02T12:57:10.246Z,99517.80
2018-03-02T12:59:38.692Z,99517.00
2018-03-02T13:02:07.021Z,99508.81
2018-03-02T13:04:35.423Z,99509.68
2018-03-02T13:07:03.761Z,99502.81
2018-03-02T13:09:32.155Z,99507.45
2018-03-02T13:12:00.481Z,99509.08
2018-03-02T13:14:28.837Z,99494.81
2018-03-02T13:16:57.205Z,99496.08
2018-03-02T13:19:25.550Z,99489.89
2018-03-02T13:21:53.897Z,99499.86
2018-03-02T13:24:22.276Z,99502.02
2018-03-02T13:27:02.391Z,99491.13
2018-03-02T13:29:30.745Z,99494.53
2018-03-02T13:31:59.277Z,99497.46
2018-03-02T13:34:39.558Z,99509.66
2018-03-02T13:37:07.904Z,99502.31
2018-03-02T13:39:48.070Z,99502.31
2018-03-02T13:42:16.442Z,99507.38
2018-03-02T13:44:45.726Z,99510.44
2018-03-02T13:47:14.109Z,99506.95
2018-03-02T13:52:42.193Z,99502.52
2018-03-02T13:55:10.554Z,99508.13
2018-03-02T13:57:50.774Z,99507.95
2018-03-02T14:00:19.161Z,99507.72
2018-03-02T14:02:59.570Z,99501.56
2018-03-02T14:05:27.924Z,99504.63
2018-03-02T14:07:56.249Z,99500.63
2018-03-02T14:10:24.595Z,99504.45
2018-03-02T14:12:53.015Z,99506.36
2018-03-02T14:15:21.500Z,99502.49
2018-03-02T14:17:49.926Z,99505.55
2018-03-02T14:20:18.283Z,99497.37
2018-03-02T14:22:46.698Z,99501.20
2018-03-02T14:25:15.045Z,99503.33
2018-03-02T14:27:43.757Z,99496.94
2018-03-02T14:30:12.097Z,99503.39
2018-03-02T14:32:40.514Z,99495.57
2018-03-02T14:35:08.874Z,99485.66
2018-03-02T14:37:37.208Z,99484.85
2018-03-02T14:40:05.634Z,99480.03
2018-03-02T14:42:34.019Z,99473.47
2018-03-02T14:45:02.386Z,99470.30
2018-03-02T14:47:30.724Z,99463.08
2018-03-02T14:49:59.065Z,99472.50
2018-03-02T14:52:27.398Z,99478.13
2018-03-02T14:54:55.790Z,99475.99
2018-03-02T14:57:24.127Z,99477.76
2018-03-02T14:59:52.557Z,99476.97
2018-03-02T15:02:20.943Z,99474.77
2018-03-02T15:04:49.282Z,99474.37
2018-03-02T15:07:17.631Z,99471.27
2018-03-02T15:09:46.369Z,99459.98
2018-03-02T15:12:14.707Z,99460.05
2018-03-02T15:14:43.050Z,99466.15
2018-03-02T15:17:11.386Z,99470.11
2018-03-02T15:19:39.738Z,99463.72
2018-03-02T15:22:08.103Z,99456.80
2018-03-02T15:24:36.468Z,99460.26
2018-03-02T15:27:05.802Z,99458.89
2018-03-02T15:29:34.155Z,99472.41
2018-03-02T15:32:02.486Z,99456.33
2018-03-02T15:34:30.842Z,99459.83
2018-03-02T15:36:59.168Z,99455.90
2018-03-02T15:39:27.537Z,99464.05
2018-03-02T15:41:55.890Z,99456.80
2018-03-02T15:44:24.244Z,99456.40
2018-03-02T15:46:52.613Z,99458.92
2018-03-02T15:49:20.950Z,99463.75
2018-03-02T15:51:49.297Z,99467.77
2018-03-02T15:54:17.630Z,99457.80
2018-03-02T15:56:46.001Z,99464.77
2018-03-02T15:59:14.318Z,99465.70
2018-03-02T16:01:42.677Z,99465.67
2018-03-02T16:04:11.000Z,99470.86
2018-03-02T16:06:39.354Z,99466.56
2018-03-02T16:09:08.598Z,99465.73
2018-03-02T16:11:36.968Z,99471.88
2018-03-02T16:14:05.306Z,99464.98
2018-03-02T16:16:33.710Z,99470.25
2018-03-02T16:19:02.043Z,99472.38
2018-03-02T16:21:30.414Z,99473.70
2018-03-02T16:23:58.767Z,99473.73
2018-03-02T16:26:27.150Z,99483.27
2018-03-02T16:28:55.474Z,99483.75
2018-03-02T16:31:23.822Z,99485.02
2018-03-02T16:33:52.152Z,99485.97
2018-03-02T16:36:20.498Z,99486.44
2018-03-02T16:38:48.830Z,99484.28
2018-03-02T16:41:17.190Z,99484.30
2018-03-02T16:43:45.538Z,99491.27
2018-03-02T16:46:13.881Z,99488.28
2018-03-02T16:48:42.224Z,99492.63
2018-03-02T16:51:10.571Z,99499.05
2018-03-02T16:53:38.910Z,99497.36
2018-03-02T16:56:07.258Z,99496.05
2018-03-02T16:58:35.594Z,99497.00
2018-03-02T17:01:03.951Z,99499.17
2018-03-02T17:03:32.284Z,99499.63
2018-03-02T17:06:02.026Z,99497.53
2018-03-02T17:08:30.363Z,99506.62
2018-03-02T17:10:58.702Z,99510.08
2018-03-02T17:13:27.160Z,99506.66
2018-03-02T17:15:55.499Z,99511.46
2018-03-02T17:18:24.611Z,99514.48
2018-03-02T17:20:52.962Z,99522.72
2018-03-02T17:23:21.349Z,99516.23
2018-03-02T17:25:49.674Z,99528.80
2018-03-02T17:28:18.002Z,99532.66
2018-03-02T17:30:46.357Z,99534.39
2018-03-02T17:33:14.778Z,99541.73
2018-03-02T17:35:43.113Z,99541.32
2018-03-02T17:38:11.442Z,99545.66
2018-03-02T17:40:39.797Z,99548.22
2018-03-02T17:43:08.145Z,99545.22
2018-03-02T17:45:36.538Z,99543.08
2018-03-02T17:48:04.866Z,99547.82
2018-03-02T17:50:33.189Z,99550.02
2018-03-02T17:53:01.556Z,99554.32
2018-03-02T17:55:29.890Z,99556.88
2018-03-02T17:57:58.303Z,99556.04
2018-03-02T18:00:26.627Z,99556.47
2018-03-02T18:02:54.973Z,99572.43
2018-03-02T18:05:23.311Z,99566.42
2018-03-02T18:07:51.661Z,99570.27
2018-03-02T18:10:19.995Z,99560.35
2018-03-02T18:12:48.346Z,99567.72
2018-03-02T18:15:16.679Z,99570.27
2018-03-02T18:17:45.030Z,99570.70
2018-03-02T18:20:16.574Z,99567.70
2018-03-02T18:22:45.012Z,99566.40
2018-03-02T18:25:13.347Z,99569.44
2018-03-02T18:27:41.762Z,99568.13
2018-03-02T18:30:10.095Z,99576.33
2018-03-02T18:32:38.438Z,99574.17
2018-03-02T18:35:06.776Z,99567.69
2018-03-02T18:37:35.130Z,99567.71
2018-03-02T18:40:03.470Z,99576.34
2018-03-02T18:42:31.970Z,99572.88
2018-03-02T18:45:00.310Z,99573.33
2018-03-02T18:47:28.667Z,99581.08
2018-03-02T18:49:57.007Z,99577.62
2018-03-02T18:52:25.474Z,99576.75
2018-03-02T18:54:53.802Z,99582.35
2018-03-02T18:57:22.151Z,99590.55
2018-03-02T18:59:50.487Z,99587.53
2018-03-02T19:02:18.833Z,99579.77
2018-03-02T19:04:47.183Z,99584.94
2018-03-02T19:07:15.529Z,99587.95
2018-03-02T19:09:43.852Z,99590.98
2018-03-02T19:12:12.197Z,99591.84
2018-03-02T19:14:40.554Z,99589.69
2018-03-02T19:17:09.480Z,99597.86
2018-03-02T19:19:37.813Z,99595.27
2018-03-02T19:22:06.319Z,99596.98
2018-03-02T19:24:34.659Z,99594.00
2018-03-02T19:27:03.022Z,99594.86
2018-03-02T19:29:31.452Z,99601.30
2018-03-02T19:31:59.794Z,99604.77
2018-03-02T19:34:28.132Z,99603.89
2018-03-02T19:36:58.098Z,99606.05
2018-03-02T19:39:26.421Z,99616.38
2018-03-02T19:41:54.782Z,99610.81
2018-03-02T19:44:23.130Z,99612.06
2018-03-02T19:46:51.488Z,99615.95
2018-03-02T19:49:19.821Z,99608.17
2018-03-02T19:51:48.177Z,99610.75
2018-03-02T19:54:16.521Z,99612.95
2018-03-02T19:56:44.869Z,99619.81
2018-03-02T19:59:13.206Z,99621.97
2018-03-02T20:01:41.534Z,99618.52
2018-03-02T20:04:09.881Z,99615.09
2018-03-02T20:06:38.207Z,99617.22
2018-03-02T20:09:06.555Z,99624.97
2018-03-02T20:11:34.903Z,99628.37
2018-03-02T20:14:03.267Z,99627.13
2018-03-02T20:16:31.595Z,99623.69
2018-03-02T20:18:59.954Z,99627.13
2018-03-02T20:21:28.284Z,99625.38
2018-03-02T20:23:56.672Z,99620.22
2018-03-02T20:26:25.000Z,99622.78
2018-03-02T20:28:53.350Z,99619.75
2018-03-02T20:31:21.688Z,99618.05
2018-03-02T20:33:50.082Z,99615.89
2018-03-02T20:36:18.455Z,99616.28
2018-03-02T20:38:46.790Z,99610.28
2018-03-02T20:41:15.134Z,99610.27
2018-03-02T20:43:43.558Z,99607.24
2018-03-02T20:46:11.894Z,99603.81
2018-03-02T20:48:40.259Z,99608.97
2018-03-02T20:51:08.590Z,99609.00
2018-03-02T20:53:36.937Z,99602.50
2018-03-02T20:56:05.269Z,99604.65
2018-03-02T20:58:33.623Z,99592.15
2018-03-02T21:01:01.946Z,99596.44
2018-03-02T21:03:30.301Z,99604.59
2018-03-02T21:05:59.610Z,99594.30
2018-03-02T21:08:27.971Z,99596.02
2018-03-02T21:10:56.303Z,99599.00
2018-03-02T21:13:24.655Z,99593.41
2018-03-02T21:15:52.981Z,99580.52
2018-03-02T21:18:21.329Z,99588.23
2018-03-02T21:20:49.665Z,99588.28
2018-03-02T21:23:18.018Z,99587.37
2018-03-02T21:25:46.346Z,99583.06
2018-03-02T21:28:14.716Z,99589.09
2018-03-02T21:30:43.024Z,99597.67
2018-03-02T21:33:11.405Z,99586.94
2018-03-02T21:35:39.706Z,99591.23
2018-03-02T21:38:08.062Z,99594.70
2018-03-02T21:40:36.391Z,99600.73
2018-03-02T21:43:04.738Z,99604.13
2018-03-02T21:45:33.073Z,99602.81
2018-03-02T21:48:01.422Z,99597.67
2018-03-02T21:50:29.804Z,99594.21
2018-03-02T21:52:58.090Z,99597.66
2018-03-02T21:55:26.438Z,99597.23
2018-03-02T21:57:54.766Z,99599.78
2018-03-02T22:00:23.186Z,99597.63
2018-03-02T22:02:51.551Z,99594.20
2018-03-02T22:05:19.894Z,99600.66
2018-03-02T22:07:48.222Z,99589.45
2018-03-02T22:10:16.589Z,99586.40
2018-03-02T22:12:44.909Z,99585.06
2018-03-02T22:15:13.258Z,99579.92
2018-03-02T22:17:41.608Z,99577.30
2018-03-02T22:20:09.942Z,99579.84
2018-03-02T22:22:38.280Z,99581.14
2018-03-02T22:25:06.642Z,99580.30
2018-03-02T22:27:34.973Z,99581.19
2018-03-02T22:30:03.323Z,99576.42
2018-03-02T22:32:31.653Z,99584.13
2018-03-02T22:35:00.002Z,99578.55
2018-03-02T22:37:28.331Z,99575.58
2018-03-02T22:39:56.683Z,99578.09
2018-03-02T22:42:25.016Z,99575.58
2018-03-02T22:44:53.372Z,99578.52
2018-03-02T22:47:21.698Z,99570.36
2018-03-02T22:49:50.061Z,99577.22
2018-03-02T22:52:19.290Z,99573.34
2018-03-02T22:54:47.633Z,99578.05
2018-03-02T22:57:15.965Z,99580.23
2018-03-02T22:59:44.321Z,99576.83
2018-03-02T23:02:12.655Z,99583.67
2018-03-02T23:04:41.014Z,99580.17
2018-03-02T23:07:09.337Z,99586.62
2018-03-02T23:09:37.759Z,99586.63
2018-03-02T23:12:06.120Z,99580.56
2018-03-02T23:14:34.450Z,99583.55
2018-03-02T23:17:02.774Z,99577.53
2018-03-02T23:19:31.121Z,99576.22
2018-03-02T23:21:59.448Z,99569.42
2018-03-02T23:24:27.794Z,99571.08
2018-03-02T23:26:56.119Z,99576.22
2018-03-02T23:29:24.466Z,99570.61
2018-03-02T23:31:52.781Z,99571.88
2018-03-02T23:34:21.135Z,99577.50
2018-03-02T23:36:49.460Z,99574.48
2018-03-02T23:39:17.806Z,99581.81
2018-03-02T23:41:46.127Z,99579.69
2018-03-02T23:44:14.469Z,99581.44
2018-03-02T23:46:42.793Z,99584.46
2018-03-02T23:49:11.142Z,99575.78
2018-03-02T23:51:39.470Z,99588.27
2018-03-02T23:54:07.826Z,99589.97
2018-03-02T23:56:36.150Z,99590.37
2018-03-02T23:59:04.474Z,99589.11
